Time;durP1;ratioP1;P1;durP2;ratioP2;P2;SDS_P1;SDS_P2;PMS_P1;PMS_P2;Temp;Humidity;BMP_temperature;BMP_pressure;BME280_temperature;BME280_humidity;BME280_pressure;Samples;Min_cycle;Max_cycle;Signal;HPM_P1;HPM_P2
2021/10/01 00:00:44;;;;;;;7.85;1.95;;;;;;;13.34;64.41;101828.09;5051839;28;20500;-63
2021/10/01 00:03:09;;;;;;;6.82;1.80;;;;;;;13.33;64.49;101829.06;5051645;28;20025;-60
2021/10/01 00:05:35;;;;;;;7.72;2.03;;;;;;;13.34;64.36;101815.69;5051818;28;20461;-65
2021/10/01 00:08:00;;;;;;;6.97;2.10;;;;;;;13.31;64.98;101822.91;5055874;28;20021;-61
2021/10/01 00:10:25;;;;;;;5.93;1.73;;;;;;;13.28;65.14;101808.78;5056102;28;20067;-61
2021/10/01 00:12:51;;;;;;;7.25;1.80;;;;;;;13.27;65.42;101820.38;5056218;28;20027;-63
2021/10/01 00:15:16;;;;;;;6.47;1.95;;;;;;;13.27;65.16;101808.88;5055656;28;20463;-61
2021/10/01 00:17:42;;;;;;;5.47;1.95;;;;;;;13.26;65.45;101805.34;5055353;28;20025;-60
2021/10/01 00:20:08;;;;;;;7.65;2.05;;;;;;;13.26;65.36;101807.13;5055466;28;20032;-66
2021/10/01 00:22:33;;;;;;;8.23;1.92;;;;;;;13.26;65.30;101820.44;5055682;28;20508;-63
2021/10/01 00:24:58;;;;;;;6.57;1.98;;;;;;;13.26;65.40;101810.69;5056760;28;20067;-65
2021/10/01 00:27:24;;;;;;;5.25;1.80;;;;;;;13.27;65.77;101806.22;5055581;28;20029;-60
2021/10/01 00:29:49;;;;;;;4.63;1.55;;;;;;;13.27;65.92;101801.78;5055384;28;20465;-60
2021/10/01 00:32:14;;;;;;;5.43;2.10;;;;;;;13.26;66.23;101797.38;5053893;28;20084;-61
2021/10/01 00:34:40;;;;;;;7.78;1.88;;;;;;;13.19;66.55;101798.53;5054881;28;20025;-66
2021/10/01 00:37:05;;;;;;;7.57;1.88;;;;;;;13.15;66.57;101796.94;5055824;28;20057;-66
2021/10/01 00:39:31;;;;;;;8.70;2.00;;;;;;;13.12;66.83;101794.41;5055569;28;20025;-67
2021/10/01 00:41:56;;;;;;;8.35;2.10;;;;;;;13.08;67.63;101791.00;5055329;28;20067;-61
2021/10/01 00:44:21;;;;;;;5.97;1.90;;;;;;;13.05;67.96;101806.22;5055560;28;20029;-59
2021/10/01 00:46:47;;;;;;;7.47;1.98;;;;;;;12.99;68.72;101791.34;5054894;28;20529;-61
2021/10/01 00:49:12;;;;;;;6.78;1.80;;;;;;;13.02;68.85;101798.34;5055182;28;20028;-65
2021/10/01 00:51:41;;;;;;;7.03;2.13;;;;;;;12.98;69.51;101786.09;5055056;28;20036;-62
2021/10/01 00:54:09;;;;;;;7.13;1.70;;;;;;;12.96;70.14;101783.50;5055513;28;20036;-65
2021/10/01 00:56:34;;;;;;;6.88;1.88;;;;;;;12.94;70.28;101783.59;5054850;28;20150;-60
2021/10/01 00:59:00;;;;;;;6.07;1.70;;;;;;;12.93;70.09;101776.53;5054930;28;20469;-67
2021/10/01 01:01:25;;;;;;;6.15;1.83;;;;;;;12.83;70.68;101777.81;5054642;28;20025;-66
2021/10/01 01:03:52;;;;;;;4.63;1.70;;;;;;;12.85;70.69;101775.97;5055117;28;20021;-66
2021/10/01 01:06:27;;;;;;;6.70;1.90;;;;;;;12.85;70.96;101770.66;5054716;28;20028;-66
2021/10/01 01:09:19;;;;;;;7.68;1.95;;;;;;;12.83;70.72;101761.03;5054922;28;20029;-67
2021/10/01 01:11:53;;;;;;;13.02;2.90;;;;;;;12.85;70.70;101768.00;5054395;28;20143;-63
2021/10/01 01:15:13;;;;;;;10.27;2.58;;;;;;;12.84;70.05;101768.91;5054685;28;20029;-61
2021/10/01 01:18:04;;;;;;;12.45;2.50;;;;;;;12.85;69.71;101761.81;5012101;28;20038;-66
2021/10/01 01:20:37;;;;;;;7.15;2.13;;;;;;;12.89;69.36;101766.06;5009967;28;20450;-65
2021/10/01 01:23:26;;;;;;;7.00;2.10;;;;;;;12.91;69.08;101756.25;5012485;28;20034;-65
2021/10/01 01:26:29;;;;;;;7.78;2.20;;;;;;;12.93;68.93;101760.56;5012422;28;20130;-64
2021/10/01 01:29:09;;;;;;;;;;;;;;;12.97;68.52;101753.34;5012484;28;20030;-65
2021/10/01 01:31:49;;;;;;;4.70;2.00;;;;;;;12.94;68.55;101753.44;5004835;28;20001;-63
2021/10/01 01:34:27;;;;;;;7.07;2.28;;;;;;;12.98;68.35;101752.44;5006398;28;20513;-65
2021/10/01 01:36:58;;;;;;;8.30;2.05;;;;;;;12.99;68.53;101742.63;5003781;28;20069;-64
2021/10/01 01:39:25;;;;;;;5.88;1.77;;;;;;;13.03;68.10;101744.25;5012650;28;20342;-61
2021/10/01 01:41:55;;;;;;;5.32;2.00;;;;;;;13.02;68.08;101735.41;5012480;28;20137;-60
2021/10/01 01:44:21;;;;;;;4.97;1.67;;;;;;;13.07;68.00;101735.25;5011792;28;20042;-67
2021/10/01 01:46:48;;;;;;;6.38;2.05;;;;;;;13.02;68.09;101727.44;5012219;28;20034;-65
2021/10/01 01:49:14;;;;;;;8.68;1.70;;;;;;;13.01;68.47;101722.19;5003829;28;20124;-62
2021/10/01 01:51:40;;;;;;;9.55;1.90;;;;;;;13.05;68.19;101718.47;5014484;28;20473;-61
2021/10/01 01:54:07;;;;;;;4.88;1.60;;;;;;;13.01;68.11;101735.47;5036157;28;20464;-58
2021/10/01 01:56:34;;;;;;;11.23;1.95;;;;;;;13.02;68.21;101718.56;5053833;28;20025;-61
2021/10/01 01:59:01;;;;;;;5.55;1.90;;;;;;;13.01;68.08;101715.06;5053522;28;20035;-66
2021/10/01 02:01:30;;;;;;;5.68;1.90;;;;;;;12.98;68.42;101717.88;5054032;28;20032;-65
2021/10/01 02:03:57;;;;;;;6.53;1.80;;;;;;;12.99;68.40;101710.75;5053899;28;20028;-64
2021/10/01 02:06:23;;;;;;;7.32;2.00;;;;;;;12.92;68.40;101705.66;5053794;28;20043;-66
2021/10/01 02:08:49;;;;;;;6.43;1.80;;;;;;;12.88;68.67;101700.56;5053376;28;20036;-67
2021/10/01 02:11:17;;;;;;;8.05;2.20;;;;;;;12.84;68.93;101702.47;5053692;28;20439;-66
2021/10/01 02:13:45;;;;;;;8.90;2.13;;;;;;;12.77;69.15;101695.66;5053672;28;20376;-65
2021/10/01 02:16:12;;;;;;;5.53;1.60;;;;;;;12.70;69.28;101692.41;5053241;28;20029;-64
2021/10/01 02:18:39;;;;;;;4.18;1.80;;;;;;;12.71;69.26;101693.25;5053477;28;20039;-63
2021/10/01 02:21:05;;;;;;;4.70;1.70;;;;;;;12.70;69.35;101689.75;5053846;28;20035;-61
2021/10/01 02:23:31;;;;;;;7.80;1.83;;;;;;;12.69;69.49;101687.16;5053721;28;20029;-64
2021/10/01 02:28:48;;;;;;;6.15;1.70;;;;;;;12.67;69.56;101673.91;5036465;28;20040;-60
2021/10/01 02:31:22;;;;;;;7.35;1.70;;;;;;;12.68;69.45;101664.16;5053285;28;20025;-67
2021/10/01 02:33:50;;;;;;;5.50;1.77;;;;;;;12.69;69.16;101666.75;5053647;28;20689;-62
2021/10/01 02:36:15;;;;;;;4.80;1.63;;;;;;;12.73;69.06;101646.22;5053413;28;20055;-63
2021/10/01 02:38:41;;;;;;;6.85;2.00;;;;;;;12.75;68.84;101649.69;5053014;28;20028;-64
2021/10/01 02:41:06;;;;;;;6.32;1.80;;;;;;;12.75;69.11;101639.91;5053351;28;20388;-61
2021/10/01 02:43:32;;;;;;;6.18;1.85;;;;;;;12.75;69.16;101644.38;5053280;28;20029;-58
2021/10/01 02:45:57;;;;;;;5.72;1.85;;;;;;;12.71;69.17;101634.78;5051837;28;20132;-61
2021/10/01 02:48:22;;;;;;;6.93;1.88;;;;;;;12.70;69.30;101625.06;5052940;28;20029;-65
2021/10/01 02:50:51;;;;;;;6.32;1.88;;;;;;;12.70;69.13;101636.59;5052921;28;20033;-65
2021/10/01 02:53:24;;;;;;;5.80;1.60;;;;;;;12.67;69.46;101623.41;5052933;28;20021;-61
2021/10/01 02:56:05;;;;;;;5.25;2.17;;;;;;;12.67;69.68;101623.41;5053045;28;20388;-67
2021/10/01 02:58:36;;;;;;;4.72;2.08;;;;;;;12.62;69.71;101615.66;5052721;28;20062;-65
2021/10/01 03:01:05;;;;;;;6.40;1.80;;;;;;;12.57;69.96;101606.13;5052336;28;20481;-63
2021/10/01 03:03:36;;;;;;;4.55;1.75;;;;;;;12.48;70.20;101599.41;5052968;28;20025;-60
2021/10/01 03:06:02;;;;;;;11.02;2.13;;;;;;;12.44;70.56;101608.41;5052817;28;20029;-60
2021/10/01 03:08:30;;;;;;;4.43;1.77;;;;;;;12.42;70.44;101597.84;5052547;28;20025;-60
2021/10/01 03:10:58;;;;;;;5.35;1.73;;;;;;;12.37;70.47;101607.78;5052598;28;20043;-60
2021/10/01 03:13:24;;;;;;;4.43;1.80;;;;;;;12.40;70.76;101612.13;5052932;28;20107;-64
2021/10/01 03:15:53;;;;;;;5.65;1.83;;;;;;;12.34;70.99;101599.09;5052585;28;20021;-60
2021/10/01 03:18:19;;;;;;;4.93;2.25;;;;;;;12.31;71.28;101601.88;5052464;28;20025;-62
2021/10/01 03:20:46;;;;;;;6.13;1.65;;;;;;;12.29;71.20;101620.53;5051800;28;20112;-65
2021/10/01 03:23:14;;;;;;;6.10;1.65;;;;;;;12.26;71.27;101602.03;5052709;28;20025;-64
2021/10/01 03:25:39;;;;;;;5.85;1.75;;;;;;;12.19;71.45;101590.81;5052481;28;20033;-60
2021/10/01 03:28:06;;;;;;;6.10;1.77;;;;;;;12.18;71.35;101582.91;5052476;28;20097;-62
2021/10/01 03:30:31;;;;;;;4.45;1.63;;;;;;;12.18;71.66;101583.75;5052329;28;20043;-62
2021/10/01 03:32:57;;;;;;;5.40;1.88;;;;;;;12.17;71.45;101568.75;5052401;28;20024;-65
2021/10/01 03:35:22;;;;;;;5.28;1.90;;;;;;;12.14;71.63;101571.53;5052334;28;20045;-60
2021/10/01 03:37:48;;;;;;;5.63;2.22;;;;;;;12.13;71.67;101565.38;5052188;28;20068;-63
2021/10/01 03:40:14;;;;;;;8.77;1.90;;;;;;;12.20;70.96;101567.75;5051739;28;20116;-61
2021/10/01 03:42:40;;;;;;;5.25;1.70;;;;;;;12.26;70.71;101570.19;5052495;28;20032;-59
2021/10/01 03:45:08;;;;;;;5.30;1.67;;;;;;;12.31;70.46;101573.50;5052339;28;20033;-60
2021/10/01 03:47:34;;;;;;;6.53;1.77;;;;;;;12.32;69.99;101561.13;5052158;28;20159;-58
2021/10/01 03:49:59;;;;;;;4.22;1.90;;;;;;;12.32;70.30;101563.78;5051816;28;20111;-64
2021/10/01 03:52:24;;;;;;;7.00;1.73;;;;;;;12.30;69.72;101539.91;5051899;28;20104;-61
2021/10/01 03:54:51;;;;;;;5.47;1.85;;;;;;;12.32;69.55;101546.03;5052076;28;20460;-60
2021/10/01 03:57:17;;;;;;;6.25;1.70;;;;;;;12.30;69.50;101553.19;5051929;28;20025;-59
2021/10/01 03:59:42;;;;;;;6.20;1.70;;;;;;;12.26;69.91;101560.44;5051394;28;20021;-59
2021/10/01 04:02:08;;;;;;;9.52;2.63;;;;;;;12.23;70.03;101559.69;5051605;28;20033;-59
2021/10/01 04:04:33;;;;;;;6.18;1.88;;;;;;;12.17;70.07;101544.84;5051299;28;20025;-63
2021/10/01 04:06:58;;;;;;;8.48;2.00;;;;;;;12.19;70.26;101563.41;5052306;28;20025;-64
2021/10/01 04:09:24;;;;;;;7.15;1.75;;;;;;;12.23;70.33;101534.00;5051986;28;20472;-64
2021/10/01 04:11:52;;;;;;;7.78;1.90;;;;;;;12.26;70.04;101540.97;5051453;28;20041;-65
2021/10/01 04:14:18;;;;;;;6.47;2.35;;;;;;;12.26;70.20;101543.63;5051548;28;20028;-60
2021/10/01 04:16:43;;;;;;;10.90;2.03;;;;;;;12.22;70.43;101523.44;5051955;28;20029;-65
2021/10/01 04:19:08;;;;;;;5.75;1.70;;;;;;;12.24;70.58;101542.84;5051318;28;20536;-59
2021/10/01 04:21:33;;;;;;;5.63;1.88;;;;;;;12.24;70.57;101535.72;5051448;28;20043;-60
2021/10/01 04:23:59;;;;;;;5.28;2.30;;;;;;;12.27;70.70;101543.56;5051666;28;20036;-62
2021/10/01 04:26:24;;;;;;;7.72;1.83;;;;;;;12.29;70.80;101548.81;5051448;28;20067;-65
2021/10/01 04:28:50;;;;;;;6.28;1.73;;;;;;;12.29;70.73;101551.47;5051787;28;20166;-60
2021/10/01 04:31:15;;;;;;;8.48;1.80;;;;;;;12.28;70.66;101547.09;5051410;28;20021;-59
2021/10/01 04:33:41;;;;;;;5.93;1.75;;;;;;;12.26;70.96;101546.28;5051472;28;20029;-66
2021/10/01 04:36:07;;;;;;;7.40;1.95;;;;;;;12.25;70.95;101544.53;5050976;28;20045;-60
2021/10/01 04:38:33;;;;;;;5.75;1.95;;;;;;;12.21;71.18;101534.97;5051904;28;20036;-61
2021/10/01 04:40:59;;;;;;;6.38;1.90;;;;;;;12.22;71.68;101550.00;5051890;28;20025;-63
2021/10/01 04:43:26;;;;;;;7.40;1.80;;;;;;;12.18;71.37;101548.41;5050479;28;20538;-63
2021/10/01 04:45:51;;;;;;;7.63;2.20;;;;;;;12.20;70.97;101535.91;5051010;28;20111;-66
2021/10/01 04:48:16;;;;;;;8.40;2.00;;;;;;;12.19;71.22;101529.75;5051629;28;20449;-67
2021/10/01 04:50:42;;;;;;;7.50;2.13;;;;;;;12.22;70.95;101542.88;5051634;28;20391;-60
2021/10/01 04:53:07;;;;;;;7.43;2.20;;;;;;;12.26;70.94;101536.53;5053611;28;20029;-63
2021/10/01 04:55:33;;;;;;;8.55;2.35;;;;;;;12.25;70.76;101531.25;5054983;28;20468;-60
2021/10/01 04:58:03;;;;;;;9.45;2.20;;;;;;;12.22;70.61;101531.41;5054427;28;20086;-62
2021/10/01 05:00:29;;;;;;;6.85;2.10;;;;;;;12.22;70.91;101526.94;5055001;28;20021;-67
2021/10/01 05:02:55;;;;;;;6.22;2.08;;;;;;;12.22;70.84;101539.38;5054211;28;20059;-67
2021/10/01 05:05:20;;;;;;;6.95;2.17;;;;;;;12.21;70.97;101529.66;5054809;28;20036;-62
2021/10/01 05:07:46;;;;;;;5.60;2.08;;;;;;;12.21;70.92;101521.69;5054766;28;20017;-64
2021/10/01 05:10:12;;;;;;;6.25;1.90;;;;;;;12.22;71.00;101532.25;5054304;28;20044;-63
2021/10/01 05:12:41;;;;;;;8.05;2.30;;;;;;;12.21;71.09;101524.34;5054324;28;20166;-64
2021/10/01 05:15:07;;;;;;;5.68;1.90;;;;;;;12.20;71.09;101519.97;5054232;28;20028;-58
2021/10/01 05:17:37;;;;;;;6.43;1.90;;;;;;;12.21;70.93;101534.97;5054774;28;20021;-56
2021/10/01 05:20:08;;;;;;;6.43;1.88;;;;;;;12.22;70.77;101524.28;5053424;28;20396;-66
2021/10/01 05:22:34;;;;;;;4.47;2.00;;;;;;;12.23;71.22;101504.78;5035527;28;20033;-64
2021/10/01 05:25:01;;;;;;;7.05;2.40;;;;;;;12.29;70.79;101535.56;5038100;28;20025;-67
2021/10/01 05:27:26;;;;;;;3.30;1.80;;;;;;;12.34;70.60;101519.41;5053980;28;20048;-59
2021/10/01 05:29:52;;;;;;;9.43;1.92;;;;;;;12.33;70.21;101521.22;5053811;28;20056;-63
2021/10/01 05:32:17;;;;;;;5.80;1.98;;;;;;;12.29;70.98;101520.47;5035190;28;20060;-68
2021/10/01 05:34:42;;;;;;;8.52;2.17;;;;;;;12.33;70.93;101515.91;5043119;28;20036;-62
2021/10/01 05:37:08;;;;;;;6.53;2.25;;;;;;;12.33;70.87;101515.91;5054333;28;20056;-66
2021/10/01 05:39:33;;;;;;;5.63;2.28;;;;;;;12.31;71.19;101504.47;5054300;28;20430;-66
2021/10/01 05:41:59;;;;;;;5.60;2.28;;;;;;;12.34;71.20;101503.47;5053958;28;20029;-64
2021/10/01 05:44:25;;;;;;;5.10;2.22;;;;;;;12.36;71.04;101496.31;5053678;28;20527;-64
2021/10/01 05:46:50;;;;;;;5.88;1.95;;;;;;;12.36;71.06;101498.97;5053140;28;20037;-59
2021/10/01 05:49:39;;;;;;;5.15;2.10;;;;;;;12.38;71.17;101497.97;5054390;28;20013;-60
2021/10/01 05:52:15;;;;;;;5.50;1.80;;;;;;;12.41;71.03;101504.94;5047385;28;20041;-60
2021/10/01 05:54:41;;;;;;;5.40;2.00;;;;;;;12.40;70.92;101497.91;5053954;28;20025;-62
2021/10/01 05:57:10;;;;;;;8.93;2.35;;;;;;;12.40;71.07;101485.47;5052999;28;20032;-61
2021/10/01 05:59:37;;;;;;;6.70;2.25;;;;;;;12.43;71.05;101492.50;5053992;28;20123;-63
2021/10/01 06:02:03;;;;;;;23.35;5.60;;;;;;;12.45;70.98;101503.88;5053468;28;20108;-66
2021/10/01 06:04:29;;;;;;;12.63;2.35;;;;;;;12.43;71.17;101495.13;5052766;28;20518;-67
2021/10/01 06:06:55;;;;;;;6.03;1.98;;;;;;;12.43;70.88;101503.09;5053601;28;20086;-61
2021/10/01 06:09:22;;;;;;;7.05;2.47;;;;;;;12.43;70.94;101487.19;5054004;28;20021;-64
2021/10/01 06:11:47;;;;;;;9.75;2.30;;;;;;;12.45;71.09;101501.22;5053853;28;20033;-60
2021/10/01 06:14:18;;;;;;;8.70;2.20;;;;;;;12.47;70.99;101502.03;5053551;28;20036;-67
2021/10/01 06:16:44;;;;;;;5.37;1.70;;;;;;;12.46;70.76;101495.84;5053334;28;20021;-64
2021/10/01 06:19:09;;;;;;;8.95;2.00;;;;;;;12.49;70.57;101494.84;5053397;28;20597;-62
2021/10/01 06:21:34;;;;;;;6.03;1.92;;;;;;;12.55;70.50;101502.56;5053844;28;20364;-60
2021/10/01 06:23:59;;;;;;;5.63;1.70;;;;;;;12.53;70.70;101483.19;5053111;28;20064;-64
2021/10/01 06:26:25;;;;;;;9.95;2.15;;;;;;;12.62;70.91;101489.88;5053081;28;20089;-63
2021/10/01 06:28:50;;;;;;;9.15;1.83;;;;;;;12.67;70.29;101487.88;5033481;28;20116;-64
2021/10/01 06:31:15;;;;;;;6.18;2.17;;;;;;;12.65;70.49;101494.19;5033432;28;20112;-66
2021/10/01 06:33:43;;;;;;;7.80;2.45;;;;;;;12.66;70.86;101488.84;5032689;28;20100;-62
2021/10/01 06:36:08;;;;;;;8.02;1.95;;;;;;;12.75;70.50;101490.25;5045100;28;20073;-64
2021/10/01 06:38:33;;;;;;;6.78;2.15;;;;;;;12.75;70.44;101474.28;5043297;28;20515;-61
2021/10/01 06:40:59;;;;;;;6.57;1.73;;;;;;;12.77;70.39;101483.94;5053012;28;20032;-64
2021/10/01 06:43:26;;;;;;;8.20;1.90;;;;;;;12.84;70.27;101487.19;5052317;28;20080;-61
2021/10/01 06:45:54;;;;;;;7.32;1.85;;;;;;;12.84;70.46;101492.50;5053083;28;20124;-65
2021/10/01 06:48:49;;;;;;;4.85;1.73;;;;;;;12.92;69.82;101489.50;5041057;28;20021;-68
2021/10/01 06:51:26;;;;;;;5.75;2.00;;;;;;;13.03;69.71;101494.31;5052928;28;20413;-67
2021/10/01 07:21:36;;;;;;;4.60;1.70;;;;;;;13.31;69.21;101477.97;5053117;28;20081;-67
2021/10/01 07:29:22;;;;;;;9.35;1.90;;;;;;;13.39;68.50;101483.84;5050317;28;20108;-66
2021/10/01 08:21:00;;;;;;;7.47;2.47;;;;;;;13.88;69.07;101463.81;5043466;28;20025;-64
2021/10/01 08:23:25;;;;;;;7.60;2.10;;;;;;;13.92;69.07;101474.22;5048033;28;20029;-59
2021/10/01 08:25:51;;;;;;;5.72;1.80;;;;;;;13.85;69.42;101463.94;5047268;28;20141;-63
2021/10/01 08:28:16;;;;;;;4.30;1.70;;;;;;;13.86;69.65;101469.22;5051090;28;20223;-63
2021/10/01 08:30:41;;;;;;;7.75;2.53;;;;;;;13.83;69.50;101471.16;5051845;28;20171;-64
2021/10/01 08:33:07;;;;;;;7.57;2.17;;;;;;;13.91;69.44;101469.84;5051507;28;20021;-60
2021/10/01 08:35:32;;;;;;;4.40;1.83;;;;;;;13.91;69.14;101468.97;5043615;28;20126;-59
2021/10/01 08:37:58;;;;;;;9.50;2.00;;;;;;;13.92;68.97;101463.56;5047929;28;20104;-60
2021/10/01 08:40:25;;;;;;;8.27;2.22;;;;;;;14.04;68.94;101469.22;5045173;28;20035;-60
2021/10/01 08:42:52;;;;;;;7.18;2.25;;;;;;;14.22;68.58;101463.00;5050671;28;20025;-61
2021/10/01 08:45:20;;;;;;;8.32;2.33;;;;;;;14.28;68.59;101461.81;5050295;28;20037;-60
2021/10/01 08:47:46;;;;;;;5.18;1.80;;;;;;;14.31;67.94;101455.47;5051177;28;20025;-65
2021/10/01 08:50:15;;;;;;;7.47;2.00;;;;;;;14.45;67.84;101450.31;5038972;28;20617;-61
2021/10/01 08:52:40;;;;;;;5.13;1.92;;;;;;;14.65;67.32;101449.31;5036507;28;20173;-63
2021/10/01 08:55:08;;;;;;;6.07;2.15;;;;;;;14.85;66.16;101442.06;5044312;28;20196;-60
2021/10/01 08:57:34;;;;;;;5.60;1.90;;;;;;;15.00;65.49;101451.91;5048021;28;20053;-62
2021/10/01 09:00:00;;;;;;;5.95;2.00;;;;;;;14.99;65.03;101462.69;5050760;28;20538;-62
2021/10/01 09:02:25;;;;;;;9.55;2.13;;;;;;;15.00;65.41;101454.59;5049767;28;20033;-59
2021/10/01 09:04:55;;;;;;;4.22;1.90;;;;;;;15.05;65.25;101455.19;5050954;28;20029;-62
2021/10/01 09:07:23;;;;;;;4.85;1.88;;;;;;;15.15;64.68;101458.22;5050928;28;20175;-62
2021/10/01 09:09:50;;;;;;;7.18;2.20;;;;;;;15.70;62.95;101454.31;5050924;28;20029;-59
2021/10/01 09:12:16;;;;;;;6.78;2.03;;;;;;;15.79;62.43;101441.38;5049869;28;20080;-65
2021/10/01 09:14:54;;;;;;;5.43;1.90;;;;;;;15.80;62.58;101451.97;5050461;28;20028;-61
2021/10/01 09:17:22;;;;;;;8.43;2.20;;;;;;;15.72;62.88;101440.88;5046503;28;20116;-61
2021/10/01 09:19:48;;;;;;;6.00;2.10;;;;;;;15.84;63.07;101431.31;5047275;28;20021;-57
2021/10/01 09:22:40;;;;;;;8.93;2.50;;;;;;;16.33;61.68;101427.56;5042892;28;20068;-67
2021/10/01 09:25:09;;;;;;;6.65;2.00;;;;;;;16.65;60.09;101428.31;5044386;28;20112;-58
2021/10/01 09:27:37;;;;;;;6.90;2.03;;;;;;;16.63;60.82;101440.91;5049592;28;20101;-62
2021/10/01 09:30:04;;;;;;;8.23;1.98;;;;;;;16.27;61.60;101444.00;5050119;28;20044;-64
2021/10/01 09:32:29;;;;;;;7.47;2.25;;;;;;;16.02;62.21;101435.59;5049678;28;20048;-59
2021/10/01 09:34:55;;;;;;;8.85;2.25;;;;;;;15.69;63.67;101436.56;5043668;28;20071;-55
2021/10/01 09:37:26;;;;;;;10.32;2.22;;;;;;;15.48;64.46;101441.28;5041338;28;20333;-59
2021/10/01 09:39:55;;;;;;;3.40;1.90;;;;;;;15.23;65.77;101428.47;5037603;28;20068;-59
2021/10/01 09:42:33;;;;;;;8.02;2.65;;;;;;;15.22;66.10;101424.94;5044407;28;20094;-63
2021/10/01 09:45:02;;;;;;;11.75;3.20;;;;;;;15.08;66.50;101422.16;5040470;28;20102;-61
2021/10/01 09:47:28;;;;;;;9.52;2.38;;;;;;;14.95;66.69;101421.09;5039227;28;20017;-59
2021/10/01 09:50:00;;;;;;;5.82;2.22;;;;;;;14.86;67.60;101415.31;5041592;28;20041;-58
2021/10/01 09:52:38;;;;;;;;;;;;;;;14.81;68.47;101419.16;5042350;28;20041;-59
2021/10/01 09:55:05;;;;;;;6.47;1.95;;;;;;;14.78;68.34;101416.69;5050385;28;19924;-59
2021/10/01 09:57:31;;;;;;;6.32;2.10;;;;;;;14.75;68.12;101415.88;5049130;28;20029;-60
2021/10/01 09:59:56;;;;;;;12.05;2.60;;;;;;;14.70;68.98;101403.75;5049784;28;20494;-57
2021/10/01 10:02:21;;;;;;;10.85;2.30;;;;;;;14.59;69.05;101410.50;5045441;28;20338;-59
2021/10/01 10:04:55;;;;;;;6.07;2.17;;;;;;;14.65;69.51;101417.31;5044152;28;20055;-61
2021/10/01 10:07:25;;;;;;;6.72;2.08;;;;;;;14.61;71.06;101404.22;5050100;28;20112;-64
2021/10/01 10:10:02;;;;;;;8.45;2.60;;;;;;;14.56;72.04;101410.63;5049581;28;20142;-63
2021/10/01 10:12:36;;;;;;;8.15;2.00;;;;;;;14.48;72.51;101410.19;5048526;28;20507;-59
2021/10/01 10:15:09;;;;;;;7.45;2.20;;;;;;;14.40;72.90;101415.06;5049347;28;20133;-65
2021/10/01 10:17:35;;;;;;;8.18;2.40;;;;;;;14.46;72.44;101421.88;5049862;28;20445;-60
2021/10/01 10:20:02;;;;;;;8.73;2.47;;;;;;;14.47;72.28;101424.44;5054685;28;20094;-66
2021/10/01 10:22:30;;;;;;;5.43;1.83;;;;;;;14.51;72.68;101422.47;5050660;28;20025;-57
2021/10/01 10:24:55;;;;;;;8.75;2.38;;;;;;;14.33;72.41;101411.81;5044047;28;20029;-58
2021/10/01 10:27:23;;;;;;;4.60;2.03;;;;;;;14.31;72.92;101426.16;5033602;28;20024;-63
2021/10/01 10:29:51;;;;;;;7.57;1.80;;;;;;;14.25;72.86;101424.69;5037917;28;20127;-58
2021/10/01 10:32:17;;;;;;;6.38;2.20;;;;;;;14.09;73.77;101421.94;5044412;28;20079;-60
2021/10/01 10:34:50;;;;;;;8.23;2.05;;;;;;;14.12;74.20;101419.13;5042756;28;20029;-61
2021/10/01 10:37:16;;;;;;;6.75;2.92;;;;;;;14.25;74.08;101425.53;5047147;28;20036;-60
2021/10/01 10:39:51;;;;;;;8.98;2.30;;;;;;;14.22;73.46;101431.03;5048636;28;20028;-61
2021/10/01 10:42:22;;;;;;;7.47;2.20;;;;;;;14.11;75.02;101419.22;5048296;28;20073;-60
2021/10/01 10:44:55;;;;;;;11.18;2.35;;;;;;;14.25;74.37;101406.91;5048772;28;20097;-60
2021/10/01 10:47:42;;;;;;;4.10;2.05;;;;;;;14.21;75.04;101410.66;5049451;28;20057;-60
2021/10/01 10:50:26;;;;;;;10.10;3.03;;;;;;;14.28;75.31;101405.03;5047982;28;20052;-58
2021/10/01 10:55:36;;;;;;;8.68;2.72;;;;;;;13.98;79.51;101397.63;5047803;28;20116;-65
2021/10/01 10:58:27;;;;;;;9.55;2.40;;;;;;;13.96;79.96;101396.88;5048505;28;20033;-64
2021/10/01 11:01:21;;;;;;;8.45;2.80;;;;;;;13.80;80.00;101394.09;5047726;28;20512;-61
2021/10/01 11:03:47;;;;;;;6.25;2.30;;;;;;;13.65;80.25;101390.41;5043457;28;20033;-61
2021/10/01 11:06:15;;;;;;;7.30;2.47;;;;;;;13.48;82.18;101389.44;5048700;28;20139;-64
2021/10/01 11:08:45;;;;;;;4.78;2.60;;;;;;;13.37;83.22;101392.59;5048906;28;20104;-61
2021/10/01 11:11:29;;;;;;;10.30;3.47;;;;;;;13.21;85.56;101394.22;5048453;28;20494;-62
2021/10/01 11:14:12;;;;;;;9.40;3.10;;;;;;;13.14;86.94;101404.28;5048939;28;20032;-59
2021/10/01 11:16:38;;;;;;;5.97;2.65;;;;;;;13.03;85.25;101385.31;5048233;28;20111;-60
2021/10/01 11:19:05;;;;;;;9.52;4.07;;;;;;;12.98;87.38;101396.19;5046879;28;20428;-60
2021/10/01 11:21:37;;;;;;;12.38;2.70;;;;;;;12.91;87.54;101390.25;5049208;28;20124;-58
2021/10/01 11:24:16;;;;;;;8.10;2.95;;;;;;;12.91;88.57;101384.94;5048500;28;20070;-64
2021/10/01 11:26:43;;;;;;;10.60;3.20;;;;;;;12.91;89.41;101386.75;5048610;28;20100;-60
2021/10/01 11:29:31;;;;;;;13.60;3.53;;;;;;;12.97;88.86;101375.84;5049070;28;20025;-63
2021/10/01 11:32:03;;;;;;;10.90;3.38;;;;;;;13.10;88.71;101387.59;5038300;28;20040;-58
2021/10/01 11:34:39;;;;;;;;;;;;;;;13.26;87.76;101378.91;5029123;28;20041;-61
2021/10/01 11:37:39;;;;;;;7.90;2.80;;;;;;;13.41;88.60;101367.59;5048049;28;19974;-65
2021/10/01 11:40:16;;;;;;;13.48;3.20;;;;;;;13.44;86.86;101362.09;5048242;28;20107;-63
2021/10/01 11:42:44;;;;;;;8.98;3.28;;;;;;;13.52;87.23;101367.06;5045605;28;20115;-62
2021/10/01 11:45:19;;;;;;;8.52;2.92;;;;;;;13.57;87.33;101361.53;5048806;28;20024;-56
2021/10/01 11:47:53;;;;;;;6.07;2.70;;;;;;;13.66;85.76;101378.81;5030310;28;20033;-58
2021/10/01 11:50:27;;;;;;;9.70;2.75;;;;;;;13.72;85.24;101374.06;5031043;28;20083;-60
2021/10/01 11:52:53;;;;;;;7.63;3.00;;;;;;;13.79;85.48;101363.97;5048358;28;20037;-62
2021/10/01 11:55:19;;;;;;;10.48;3.10;;;;;;;13.93;86.07;101361.47;5041709;28;20066;-59
2021/10/01 11:57:46;;;;;;;7.38;2.65;;;;;;;14.17;84.77;101376.25;5046329;28;20380;-56
2021/10/01 12:00:14;;;;;;;7.95;2.90;;;;;;;14.41;83.55;101371.47;5049200;28;20079;-60
2021/10/01 12:02:41;;;;;;;10.20;2.90;;;;;;;14.59;82.31;101361.63;5047425;28;20025;-57
2021/10/01 12:05:32;;;;;;;6.90;2.78;;;;;;;14.75;80.99;101359.06;5048262;28;20037;-60
2021/10/01 12:08:03;;;;;;;8.48;2.83;;;;;;;14.93;81.17;101359.84;5047825;28;20120;-59
2021/10/01 12:10:32;;;;;;;6.93;2.53;;;;;;;15.07;79.59;101351.09;5047540;28;20132;-59
2021/10/01 12:13:02;;;;;;;10.35;2.53;;;;;;;15.10;78.85;101350.06;5047839;28;20051;-58
2021/10/01 12:15:44;;;;;;;10.57;2.65;;;;;;;15.12;78.52;101358.84;5047731;28;20032;-59
2021/10/01 12:18:27;;;;;;;;;;;;;;;15.26;78.03;101358.06;5047629;28;20029;-59
2021/10/01 12:20:54;;;;;;;5.70;2.20;;;;;;;15.51;76.85;101344.16;5046595;28;19920;-66
2021/10/01 12:23:23;;;;;;;5.85;2.40;;;;;;;15.70;74.64;101339.50;5047344;28;20021;-60
2021/10/01 12:25:50;;;;;;;8.07;2.17;;;;;;;15.53;74.44;101340.47;5047323;28;20037;-60
2021/10/01 12:28:16;;;;;;;7.95;2.17;;;;;;;15.51;74.97;101341.50;5047573;28;20035;-61
2021/10/01 12:30:42;;;;;;;7.28;2.03;;;;;;;15.54;74.27;101347.53;5047531;28;20069;-59
2021/10/01 12:33:09;;;;;;;8.73;2.42;;;;;;;15.56;76.05;101350.09;5045791;28;20096;-64
2021/10/01 12:35:34;;;;;;;8.50;2.15;;;;;;;15.44;75.00;101341.00;5034590;28;20401;-62
2021/10/01 12:38:00;;;;;;;5.78;2.35;;;;;;;15.39;74.31;101348.41;5027788;28;20036;-63
2021/10/01 12:40:25;;;;;;;16.63;4.97;;;;;;;15.42;76.57;101342.88;5042794;28;20052;-62
2021/10/01 12:42:52;;;;;;;7.97;2.20;;;;;;;15.49;75.32;101357.63;5039690;28;20445;-59
2021/10/01 12:45:20;;;;;;;8.02;2.15;;;;;;;15.26;77.62;101342.91;5038011;28;20025;-61
2021/10/01 12:47:47;;;;;;;7.60;2.30;;;;;;;15.05;78.26;101347.63;5045036;28;20028;-63
2021/10/01 12:50:30;;;;;;;10.52;2.92;;;;;;;14.79;79.93;101344.59;5037818;28;20021;-58
2021/10/01 12:52:58;;;;;;;4.95;2.00;;;;;;;14.66;79.54;101364.88;5047371;28;20484;-63
2021/10/01 12:55:23;;;;;;;5.78;2.05;;;;;;;14.56;79.84;101327.16;5035030;28;20082;-65
2021/10/01 12:57:52;;;;;;;10.55;2.10;;;;;;;14.37;81.95;101357.47;5042911;28;20469;-63
2021/10/01 13:00:39;;;;;;;8.00;2.60;;;;;;;14.04;86.25;101352.06;5042067;28;20032;-62